Latest Weather Observations for Hindmarsh Island

IDS60901

Issued at 9:41 pm CST Saturday 5 September 2015 (issued every 10 minutes, with the page automatically refreshed every 10 minutes)

About weather observations | Map of Adelaide area stations | Latest observations for Adelaide area | Other Formats
Station Details ID: 023894 Name: HINDMARSH ISLAND AWS Lat: -35.52 Lon: 138.82 Height: 11.0 m
Data from the previous 72 hours. | See also: Recent months at Hindmarsh Island
Date/Time
CST
Tmp

°C
App
Tmp
°C
Dew
Point
°C
Rel
Hum
%
Delta-T

°C
Wind Press
QNH
hPa
Press
MSL
hPa
Rain
since
9 am
mm
Dir
 
Spd
km/h
Gust
km/h
Spd
kts
Gust
kts
05/09:30pm 11.5 11.0 7.8 78 1.8 CALM 0 0 0 0 1020.3 - 0.0
05/09:00pm 11.7 11.2 7.8 77 1.9 CALM 0 6 0 3 1020.5 1020.5 0.0
05/08:30pm 12.0 11.6 8.3 78 1.8 CALM 0 0 0 0 1020.6 - 0.0
05/08:00pm 12.0 11.3 8.5 79 1.7 ENE 2 7 1 4 1020.6 - 0.0
05/07:30pm 12.2 10.6 7.9 75 2.1 E 6 9 3 5 1020.7 - 0.0
05/07:00pm 12.3 10.3 7.2 71 2.5 E 7 9 4 5 1020.5 - 0.0
05/06:30pm 12.6 10.5 8.1 74 2.2 ESE 9 11 5 6 1020.1 - 0.0
05/06:00pm 13.0 11.3 8.3 73 2.3 SE 7 9 4 5 1020.0 1020.0 0.0
05/05:30pm 13.6 11.1 8.2 70 2.7 S 11 13 6 7 1020.0 - 0.0
05/05:00pm 14.3 11.9 8.7 69 2.8 S 11 11 6 6 1019.5 - 0.0
05/04:30pm 14.9 12.4 8.4 65 3.3 S 11 13 6 7 1019.4 - 0.0
05/04:00pm 15.8 13.8 8.5 62 3.7 SSW 9 15 5 8 1019.8 - 0.0
05/03:30pm 16.6 14.6 7.0 53 4.8 S 7 13 4 7 1020.0 - 0.0
05/03:00pm 16.5 14.4 8.2 58 4.2 W 9 11 5 6 1020.3 1020.3 0.0
05/02:30pm 15.7 12.8 8.0 60 3.9 N 13 19 7 10 1020.7 - 0.0
05/02:00pm 15.6 11.8 7.6 59 4.0 NE 17 22 9 12 1020.9 - 0.0
05/01:30pm 15.5 11.3 7.3 58 4.1 NE 19 24 10 13 1021.2 - 0.0
05/01:00pm 14.9 10.6 7.0 59 3.9 NNE 19 24 10 13 1021.8 - 0.0
05/12:30pm 14.7 10.2 6.3 57 4.0 NNE 19 24 10 13 1022.2 - 0.0
05/12:00pm 15.6 11.4 8.1 61 3.8 NNE 20 30 11 16 1022.6 1022.7 0.0
05/11:30am 13.2 7.9 7.0 66 3.0 NNE 24 32 13 17 1023.0 - 0.0
05/11:00am 12.8 8.2 6.6 66 3.0 NNE 20 26 11 14 1023.5 - 0.0
05/10:30am 12.7 8.6 6.1 64 3.1 NNE 17 22 9 12 1024.3 - 0.0
05/10:00am 12.4 7.9 6.2 66 2.9 NNE 19 22 10 12 1025.0 - 0.0
05/09:30am 11.1 6.9 5.6 69 2.5 NNE 17 24 9 13 1025.3 - 0.0
05/09:00am 10.5 5.8 5.3 70 2.4 NNE 19 24 10 13 1025.4 1025.4 0.0
05/08:30am 9.5 5.1 4.9 73 2.1 NNE 17 20 9 11 1025.4 - 0.0
05/08:00am 8.5 4.9 5.1 79 1.5 N 13 17 7 9 1025.3 - 0.0
05/07:30am 7.2 4.3 4.9 85 1.0 NNE 9 13 5 7 1025.3 - 0.0
05/07:00am 6.2 3.5 3.7 84 1.1 NE 7 9 4 5 1025.5 - 0.0
05/06:30am 6.3 3.6 3.8 84 1.1 N 7 11 4 6 1025.4 - 0.0
05/06:00am 6.1 3.1 3.9 86 0.9 N 9 11 5 6 1025.1 1025.1 0.0
05/05:30am 5.6 2.4 3.3 85 1.0 N 9 11 5 6 1024.9 - 0.0
05/05:00am 5.8 2.7 3.5 85 1.0 N 9 11 5 6 1024.6 - 0.0
05/04:30am 5.8 2.6 3.3 84 1.0 N 9 11 5 6 1024.1 - 0.0
05/04:00am 6.4 3.0 4.1 85 1.0 N 11 13 6 7 1024.1 - 0.0
05/03:30am 6.3 3.1 3.1 80 1.3 N 9 11 5 6 1024.1 - 0.0
05/03:00am 6.6 3.8 3.2 79 1.4 NNW 7 9 4 5 1024.2 1024.2 0.0
05/02:30am 7.0 3.9 3.8 80 1.4 NNW 9 11 5 6 1024.7 - 0.0
05/02:00am 7.4 4.1 4.4 81 1.3 N 11 13 6 7 1024.9 - 0.0
05/01:30am 8.1 5.1 3.9 75 1.8 N 9 11 5 6 1025.2 - 0.0
05/01:00am 9.0 7.1 2.8 65 2.6 ENE 2 6 1 3 1025.4 - 0.0
05/12:30am 9.9 7.2 3.9 66 2.6 N 7 9 4 5 1025.4 - 0.0
05/12:00am 9.9 7.1 3.2 63 2.9 NE 7 9 4 5 1025.7 1025.7 0.0
 
Date/Time
CST
Tmp

°C
App
Tmp
°C
Dew
Point
°C
Rel
Hum
%
Delta-T

°C
Wind Press
QNH
hPa
Press
MSL
hPa
Rain
since
9 am
mm
Dir
 
Spd
km/h
Gust
km/h
Spd
kts
Gust
kts
04/11:30pm 9.6 6.8 2.9 63 2.9 NE 7 9 4 5 1026.0 - 0.0
04/11:00pm 10.8 8.9 3.1 59 3.3 ESE 2 6 1 3 1026.3 - 0.0
04/10:30pm 10.6 8.0 3.4 61 3.1 ESE 6 9 3 5 1026.7 - 0.0
04/10:00pm 10.6 7.4 3.2 60 3.2 ESE 9 15 5 8 1026.8 - 0.0
04/09:30pm 11.0 8.1 2.8 57 3.5 E 7 11 4 6 1026.8 - 0.0
04/09:00pm 10.9 8.3 3.0 58 3.4 E 6 7 3 4 1026.9 1026.9 0.0
04/08:30pm 11.5 9.2 3.0 56 3.7 S 4 11 2 6 1026.7 - 0.0
04/08:00pm 11.4 7.2 3.9 60 3.3 SSE 15 17 8 9 1026.4 - 0.0
04/07:30pm 11.3 8.9 4.1 61 3.2 S 6 7 3 4 1026.4 - 0.0
04/07:00pm 11.5 8.9 3.0 56 3.7 S 6 13 3 7 1026.3 - 0.0
04/06:30pm 11.5 7.3 3.8 59 3.4 S 15 19 8 10 1026.2 - 0.0
04/06:00pm 11.7 7.1 3.7 58 3.5 SSW 17 22 9 12 1026.0 1026.0 0.0
04/05:30pm 12.0 7.9 4.5 60 3.4 S 15 19 8 10 1026.0 - 0.0
04/05:00pm 12.2 8.1 4.2 58 3.6 S 15 17 8 9 1025.9 - 0.0
04/04:30pm 12.5 8.7 3.7 55 3.9 S 13 15 7 8 1025.7 - 0.0
04/04:00pm 12.7 8.9 3.9 55 4.0 S 13 17 7 9 1025.7 - 0.0
04/03:30pm 12.8 8.6 4.0 55 4.0 SSE 15 17 8 9 1025.8 - 0.0
04/03:00pm 12.8 9.2 4.8 58 3.7 S 13 15 7 8 1025.8 1025.8 0.0
04/02:30pm 12.8 9.0 4.0 55 4.0 S 13 17 7 9 1025.8 - 0.0
04/02:00pm 13.0 9.3 4.7 57 3.8 S 13 15 7 8 1026.0 - 0.0
04/01:30pm 12.9 9.7 5.1 59 3.6 S 11 15 6 8 1026.4 - 0.0
04/01:00pm 13.0 9.6 5.9 62 3.3 SSW 13 17 7 9 1026.8 - 0.0
04/12:30pm 12.4 10.1 5.6 63 3.2 SSW 7 9 4 5 1027.0 - 0.0
04/12:00pm 12.0 9.5 6.5 69 2.6 SSW 9 11 5 6 1027.2 1027.2 0.0
04/11:30am 12.5 10.4 6.8 68 2.7 W 7 11 4 6 1027.6 - 0.0
04/11:00am 12.0 9.2 7.1 72 2.4 N 11 15 6 8 1027.8 - 0.0
04/10:30am 11.7 9.3 6.8 72 2.3 NNE 9 17 5 9 1028.2 - 0.0
04/10:00am 11.6 9.3 7.3 75 2.1 N 9 13 5 7 1028.2 - 0.0
04/09:30am 11.3 9.0 7.4 77 1.9 N 9 13 5 7 1028.4 - 0.0
04/09:00am 11.1 9.2 7.6 79 1.7 N 7 11 4 6 1028.3 1028.3 0.0
04/08:30am 10.6 8.3 7.3 80 1.6 N 9 13 5 7 1028.2 - 0.0
04/08:00am 10.5 7.9 7.6 82 1.4 NNE 11 17 6 9 1028.2 - 0.0
04/07:30am 10.2 7.1 7.4 83 1.3 NE 13 17 7 9 1027.9 - 0.0
04/07:00am 9.7 6.5 6.8 82 1.4 NE 13 15 7 8 1027.4 - 0.0
04/06:30am 9.7 6.4 6.4 80 1.5 E 13 15 7 8 1027.1 - 0.0
04/06:00am 10.0 7.7 5.8 75 1.9 E 7 9 4 5 1026.8 1026.7 0.0
04/05:30am 10.8 7.1 6.2 73 2.1 SSE 15 17 8 9 1026.5 - 0.0
04/05:00am 10.5 6.5 6.8 78 1.7 S 17 20 9 11 1026.5 - 0.0
04/04:30am 10.2 5.8 6.7 79 1.6 S 19 24 10 13 1026.3 - 0.0
04/04:00am 9.9 6.5 6.1 77 1.8 SW 13 17 7 9 1026.2 - 0.0
04/03:30am 10.9 5.8 6.1 72 2.2 SSE 22 26 12 14 1026.0 - 0.0
04/03:00am 10.8 5.9 6.9 77 1.8 SE 22 26 12 14 1026.2 1026.2 0.0
04/02:30am 11.1 6.6 6.0 71 2.4 SSW 19 20 10 11 1026.5 - 0.0
04/02:00am 10.6 5.2 6.2 74 2.0 S 24 28 13 15 1026.6 - 0.0
04/01:30am 11.3 7.6 6.4 72 2.3 SSW 15 20 8 11 1026.6 - 0.0
04/01:00am 11.3 6.3 6.6 73 2.2 SSW 22 28 12 15 1026.6 - 0.0
04/12:30am 11.3 5.5 6.2 71 2.4 S 26 30 14 16 1026.3 - 0.0
04/12:00am 11.4 6.1 6.7 73 2.2 S 24 30 13 16 1026.4 1026.3 0.0
 
Date/Time
CST
Tmp

°C
App
Tmp
°C
Dew
Point
°C
Rel
Hum
%
Delta-T

°C
Wind Press
QNH
hPa
Press
MSL
hPa
Rain
since
9 am
mm
Dir
 
Spd
km/h
Gust
km/h
Spd
kts
Gust
kts
03/11:30pm 11.5 6.2 6.8 73 2.2 S 24 30 13 16 1026.3 - 0.0
03/11:00pm 11.5 6.1 7.8 78 1.8 SSW 26 32 14 17 1026.2 - 0.0
03/10:30pm 12.0 7.3 7.9 76 2.0 S 22 26 12 14 1026.3 - 0.0
03/10:00pm 11.6 7.2 7.5 76 2.0 SSW 20 24 11 13 1026.2 - 0.0
03/09:30pm 11.5 5.6 7.4 76 2.0 SSW 28 32 15 17 1026.0 - 0.0
03/09:00pm 11.8 7.1 7.7 76 2.0 SW 22 26 12 14 1026.1 1026.1 0.0
03/08:30pm 11.8 5.8 6.9 72 2.3 SSW 28 33 15 18 1025.8 - 0.0
03/08:00pm 12.0 6.2 7.9 76 2.0 S 28 33 15 18 1025.4 - 0.0
03/07:30pm 12.1 5.5 7.6 74 2.2 S 32 35 17 19 1025.0 - 0.0
03/07:00pm 12.5 6.8 8.2 75 2.1 S 28 33 15 18 1024.7 - 0.0
03/06:30pm 12.4 6.5 7.7 73 2.3 S 28 32 15 17 1024.5 - 0.0
03/06:00pm 12.5 6.7 7.8 73 2.3 S 28 33 15 18 1024.3 1024.3 0.0
03/05:30pm 12.7 7.0 8.2 74 2.2 S 28 32 15 17 1023.9 - 0.0
03/05:00pm 12.8 6.4 8.5 75 2.1 S 32 37 17 20 1023.5 - 0.0
03/04:30pm 12.9 6.3 8.4 74 2.2 S 33 41 18 22 1023.1 - 0.0
03/04:00pm 13.1 6.3 9.2 77 2.0 S 35 41 19 22 1022.8 - 0.0
03/03:30pm 13.2 6.8 9.5 78 1.9 S 33 39 18 21 1022.4 - 0.0
03/03:00pm 13.5 7.2 9.6 77 2.0 S 33 44 18 24 1022.0 1022.0 0.0
03/02:30pm 13.4 6.7 9.5 77 2.0 S 35 41 19 22 1021.7 - 0.0
03/02:00pm 14.0 7.0 10.0 77 2.1 S 37 44 20 24 1021.5 - 0.0
03/01:30pm 14.0 6.6 10.0 77 2.1 S 39 46 21 25 1021.3 - 0.0
03/01:00pm 14.1 7.9 10.1 77 2.1 S 33 43 18 23 1021.4 - 0.0
03/12:30pm 13.9 7.4 10.5 80 1.8 SSW 35 41 19 22 1021.4 - 0.0
03/12:00pm 14.1 7.4 10.9 81 1.7 S 37 46 20 25 1021.3 1021.3 0.0
03/11:30am 14.2 7.9 11.0 81 1.7 S 35 43 19 23 1021.2 - 0.0
03/11:00am 13.8 7.0 10.6 81 1.7 S 37 46 20 25 1021.0 - 0.0
03/10:30am 13.6 6.4 10.4 81 1.7 SSW 39 46 21 25 1020.7 - 0.0
03/10:00am 13.2 6.4 10.6 84 1.4 SSW 37 43 20 23 1020.4 - 0.0
03/09:30am 13.4 7.0 10.6 83 1.5 S 35 46 19 25 1020.1 - 0.0
03/09:00am 13.0 5.8 10.4 84 1.3 S 39 56 21 30 1019.4 1019.2 6.4
03/08:30am 13.2 6.3 10.4 83 1.5 S 37 46 20 25 1018.6 - 6.4
03/08:00am 13.2 5.6 10.4 83 1.5 S 41 50 22 27 1017.8 - 6.4
03/07:30am 13.1 5.5 10.5 84 1.4 SSW 41 52 22 28 1017.1 - 6.4
03/07:00am 13.1 6.2 10.3 83 1.4 SSW 37 48 20 26 1016.6 - 6.4
03/06:30am 13.0 6.5 10.2 83 1.4 SSW 35 50 19 27 1015.8 - 6.4
03/06:00am 12.9 5.9 10.1 83 1.4 SSW 37 46 20 25 1015.3 1015.3 6.4
03/05:30am 12.8 5.8 9.8 82 1.5 SSW 37 46 20 25 1014.6 - 6.4
03/05:00am 12.6 6.0 10.0 84 1.3 SSW 35 43 19 23 1013.7 - 6.4
03/04:30am 12.4 5.5 10.3 87 1.1 SSW 37 44 20 24 1013.1 - 6.4
03/04:18am 12.4 3.7 10.0 85 1.2 SSW 46 54 25 29 1012.6 - 6.2
03/04:17am 12.4 3.3 10.0 85 1.2 SSW 48 54 26 29 1012.7 - 6.2
03/04:00am 12.4 7.1 10.0 85 1.2 SW 28 37 15 20 1012.6 - 6.2
03/03:30am 12.1 7.1 9.5 84 1.3 SW 26 32 14 17 1012.3 - 6.2
03/03:00am 11.9 6.9 9.6 86 1.2 SSW 26 32 14 17 1012.0 1012.0 6.2
03/02:30am 11.7 7.1 9.6 87 1.1 SSW 24 30 13 16 1011.9 - 6.2
03/02:00am 12.1 7.0 9.1 82 1.5 SSW 26 30 14 16 1012.0 - 6.2
03/01:30am 12.2 6.7 9.2 82 1.5 S 28 33 15 18 1011.7 - 6.2
03/01:00am 12.0 6.1 9.2 83 1.4 S 30 37 16 20 1011.2 - 6.2
03/12:30am 11.7 5.3 8.7 82 1.5 S 32 39 17 21 1010.9 - 6.2
03/12:00am 12.1 7.4 9.3 83 1.4 S 24 28 13 15 1010.1 1010.1 6.2
 
Date/Time
CST
Tmp

°C
App
Tmp
°C
Dew
Point
°C
Rel
Hum
%
Delta-T

°C
Wind Press
QNH
hPa
Press
MSL
hPa
Rain
since
9 am
mm
Dir
 
Spd
km/h
Gust
km/h
Spd
kts
Gust
kts
02/11:30pm 12.0 7.3 9.2 83 1.4 S 24 30 13 16 1009.6 - 6.2
02/11:00pm 12.0 6.9 9.2 83 1.4 S 26 33 14 18 1009.4 - 6.2
02/10:30pm 12.2 5.1 9.4 83 1.4 S 37 43 20 23 1009.3 - 6.2
02/10:00pm 12.1 6.8 9.7 85 1.2 S 28 35 15 19 1008.9 - 6.2

Latest Capital City Observations: Canberra | Sydney | Melbourne | Brisbane | Adelaide | Perth | Hobart | Darwin

Other Formats:

Comma delimited format used in spreadsheet applications
http://www.bom.gov.au/fwo/IDS60901/IDS60901.94677.axf

JavaScript Object Notation format (JSON) in row-major order
http://www.bom.gov.au/fwo/IDS60901/IDS60901.94677.json